Justice — WDG2184 — position and weather

sailwx.info

Track history (hours):
 
Tides and Currents Weather Stations Pressure Air Temp Water Temp Dewpoint Dewpoint Depression Visibility Wind Speed Wind Dir Waves Ship Positions

Justice

Owner: Boston Towing & Transportation, Boston, MA. More information available from US FCC via Universal Licensing System and Coast Guard Vessel Documentation Center.

Last reported at 2016-Sep-01 03:33 UTC. Time now 2016-Sep-01 03:43 UTC.
Position N 42°23' W 071°03'.

Length 30 m; draft 5.8 m.

Type: Tug. MMSI: 367513010.

Date/timePositionNaut miles runAvg speedWind from/ knotsBaromVisibWave heightAir tempDewpointWater temp
2016-Sep-01 03:33N 42°23' W 071°03'0 0.0
2016-Sep-01 02:32N 42°23' W 071°03'0 0.0
2016-Sep-01 01:33N 42°23' W 071°03'0 0.0
2016-Sep-01 00:31N 42°23' W 071°03'0 0.0
2016-Aug-31 23:33N 42°23' W 071°03'1 0.8
2016-Aug-31 22:33N 42°23' W 071°02'2 1.9
2016-Aug-31 21:33N 42°21' W 071°02'2 2.0
2016-Aug-31 20:34N 42°23' W 071°02'0 0.4
2016-Aug-31 19:33N 42°23' W 071°03'0 0.1
2016-Aug-31 18:33N 42°23' W 071°03'6 5.8
2016-Aug-31 17:33N 42°20' W 070°56'6 5.7
2016-Aug-31 16:33N 42°14' W 070°58'1 0.6
2016-Aug-31 15:32N 42°15' W 070°58'5 4.8
2016-Aug-31 14:33N 42°19' W 070°55'3 3.5
2016-Aug-31 13:34N 42°16' W 070°56'2 1.8
2016-Aug-31 12:33N 42°15' W 070°58'5 5.2
2016-Aug-31 11:33N 42°19' W 070°55'7 6.7
2016-Aug-31 10:33N 42°23' W 071°03'0 0.0
2016-Aug-31 09:33N 42°23' W 071°03'0 0.0
2016-Aug-31 08:33N 42°23' W 071°03'0 0.0
2016-Aug-31 07:33N 42°23' W 071°03'0 0.0
2016-Aug-31 06:33N 42°23' W 071°03'0 0.0
2016-Aug-31 05:33N 42°23' W 071°03'0 0.0
2016-Aug-31 04:33N 42°23' W 071°03'0 0.0
2016-Aug-31 03:33N 42°23' W 071°03'1 0.9
2016-Aug-31 02:34N 42°23' W 071°01'1 0.5
2016-Aug-31 01:33N 42°24' W 071°01'1 1.4
2016-Aug-31 00:33N 42°23' W 071°03'0 0.1
2016-Aug-30 23:33N 42°23' W 071°03'0 0.0
2016-Aug-30 22:33N 42°23' W 071°03'0 0.0
2016-Aug-30 21:33N 42°23' W 071°03'0 0.0
2016-Aug-30 20:33N 42°23' W 071°03'0 0.0
2016-Aug-30 19:33N 42°23' W 071°03'0 0.0
2016-Aug-30 18:33N 42°23' W 071°03'0 0.0
2016-Aug-30 17:33N 42°23' W 071°03'0 0.0
2016-Aug-30 16:33N 42°23' W 071°03'0 0.0
2016-Aug-30 15:33N 42°23' W 071°03'1 0.8
2016-Aug-30 14:33N 42°23' W 071°03'2 2.4
2016-Aug-30 13:34N 42°21' W 071°02'2 2.5
2016-Aug-30 12:33N 42°23' W 071°04'1 1.4
2016-Aug-30 11:34N 42°23' W 071°02'1 0.7
2016-Aug-30 10:33N 42°23' W 071°03'3 2.5
2016-Aug-30 09:33N 42°21' W 071°01'0 0.4
2016-Aug-30 08:33N 42°21' W 071°01'0 0.0
2016-Aug-30 07:34N 42°21' W 071°01'0 0.0
2016-Aug-30 06:33N 42°21' W 071°01'0 0.0
2016-Aug-30 05:33N 42°21' W 071°01'0 0.0
2016-Aug-30 04:33N 42°21' W 071°01'0 0.2
2016-Aug-30 03:33N 42°21' W 071°01'2 2.5
2016-Aug-30 02:33N 42°23' W 071°03'0 0.0
2016-Aug-30 01:33N 42°23' W 071°03'0 0.0
2016-Aug-30 00:33N 42°23' W 071°03'0 0.0
2016-Aug-29 23:33N 42°23' W 071°03'0 0.0
2016-Aug-29 22:33N 42°23' W 071°03'0 0.0
2016-Aug-29 21:33N 42°23' W 071°03'0 0.0
2016-Aug-29 20:33N 42°23' W 071°03'1 1.2
2016-Aug-29 19:33N 42°23' W 071°01'1 1.1
2016-Aug-29 18:33N 42°23' W 071°03'0 0.0
2016-Aug-29 17:33N 42°23' W 071°03'0 0.2
2016-Aug-29 16:33N 42°23' W 071°03'4 4.2
2016-Aug-29 15:33N 42°20' W 070°59'6 5.8
2016-Aug-29 14:33N 42°14' W 070°58'1 0.7
2016-Aug-29 13:33N 42°15' W 070°58'4 4.5
2016-Aug-29 12:33N 42°19' W 070°55'6 5.8
2016-Aug-29 11:33N 42°21' W 071°02'1 1.5
2016-Aug-29 10:33N 42°23' W 071°03'0 0.2
2016-Aug-29 09:34N 42°23' W 071°03'1 1.0
2016-Aug-29 08:33N 42°22' W 071°03'2 2.3
2016-Aug-29 07:33N 42°24' W 071°01'1 1.2
2016-Aug-29 06:34N 42°23' W 071°02'0 0.5
2016-Aug-29 05:33N 42°23' W 071°03'0 0.0
2016-Aug-29 04:33N 42°23' W 071°03'0 0.0
2016-Aug-29 03:33N 42°23' W 071°03'0 0.0
2016-Aug-29 02:27N 42°23' W 071°03'2 2.8
2016-Aug-29 01:34N 42°21' W 071°01'1 0.7
2016-Aug-29 00:33N 42°21' W 071°02'2 1.7
2016-Aug-28 23:33N 42°23' W 071°03'0 0.0
2016-Aug-28 22:33N 42°23' W 071°03'0 0.0
2016-Aug-28 21:33N 42°23' W 071°03'0 0.0
2016-Aug-28 20:33N 42°23' W 071°03'0 0.0
2016-Aug-28 19:33N 42°23' W 071°03'0 0.0
2016-Aug-28 18:33N 42°23' W 071°03'0 0.0
2016-Aug-28 17:33N 42°23' W 071°03'0 0.0
2016-Aug-28 16:33N 42°23' W 071°03'0 0.0
2016-Aug-28 15:33N 42°23' W 071°03'0 0.0
2016-Aug-28 14:33N 42°23' W 071°03'0 0.0
2016-Aug-28 13:33N 42°23' W 071°03'0 0.0
2016-Aug-28 12:33N 42°23' W 071°03'1 0.7
2016-Aug-28 11:33N 42°23' W 071°02'1 0.7
2016-Aug-28 10:33N 42°23' W 071°03'0 0.0
2016-Aug-28 09:33N 42°23' W 071°03'0 0.0
2016-Aug-28 08:33N 42°23' W 071°03'0 0.0
2016-Aug-28 07:33N 42°23' W 071°03'0 0.0
2016-Aug-28 06:33N 42°23' W 071°03'0 0.0
2016-Aug-28 05:33N 42°23' W 071°03'0 0.0
2016-Aug-28 04:33N 42°23' W 071°03'0 0.0
2016-Aug-28 03:33N 42°23' W 071°03'2 2.4
2016-Aug-28 02:34N 42°21' W 071°01'2 2.0
2016-Aug-28 01:33N 42°20' W 070°59'2 1.5
2016-Aug-28 00:33N 42°20' W 071°00'2 1.7
2016-Aug-27 23:33N 42°21' W 071°02'1 1.3
2016-Aug-27 22:33N 42°23' W 071°03'0 0.0
2016-Aug-27 21:33N 42°23' W 071°03'0 0.0
2016-Aug-27 20:34N 42°23' W 071°03'0 0.0
2016-Aug-27 19:33N 42°23' W 071°03'0 0.0
2016-Aug-27 18:33N 42°23' W 071°03'0 0.0
2016-Aug-27 17:33N 42°23' W 071°03'0 0.0
2016-Aug-27 16:33N 42°23' W 071°03'0 0.0
2016-Aug-27 15:33N 42°23' W 071°03'0 0.0
2016-Aug-27 14:33N 42°23' W 071°03'2 1.7
2016-Aug-27 13:33N 42°24' W 071°01'3 2.6
2016-Aug-27 12:33N 42°22' W 071°02'1 0.6
2016-Aug-27 11:33N 42°21' W 071°02'3 2.6
2016-Aug-27 10:33N 42°23' W 071°04'1 1.3
2016-Aug-27 09:34N 42°22' W 071°03'1 0.7
2016-Aug-27 08:33N 42°23' W 071°03'0 0.0
2016-Aug-27 07:33N 42°23' W 071°03'0 0.0
2016-Aug-27 06:33N 42°23' W 071°03'0 0.2
2016-Aug-27 04:33N 42°23' W 071°02'0 0.2
2016-Aug-27 03:33N 42°23' W 071°03'0 0.1
2016-Aug-27 02:33N 42°23' W 071°03'0 0.0
2016-Aug-27 01:33N 42°23' W 071°03'0 0.0
2016-Aug-27 00:33N 42°23' W 071°03'0 0.0
2016-Aug-26 23:33N 42°23' W 071°03'1 0.7
2016-Aug-26 22:34N 42°23' W 071°03'1 0.7
2016-Aug-26 21:33N 42°23' W 071°03'0 0.0
2016-Aug-26 20:33N 42°23' W 071°03'0 0.0
2016-Aug-26 19:33N 42°23' W 071°03'1 0.5
2016-Aug-26 18:31N 42°23' W 071°03'1 1.1
2016-Aug-26 17:33N 42°22' W 071°03'2 1.7
2016-Aug-26 16:33N 42°21' W 071°02'0 0.1
2016-Aug-26 15:33N 42°21' W 071°02'0 0.0
2016-Aug-26 14:33N 42°21' W 071°02'0 0.0
2016-Aug-26 13:25N 42°21' W 071°02'0 0.0
2016-Aug-26 12:31N 42°21' W 071°02'0 0.0
2016-Aug-26 11:33N 42°21' W 071°02'2 2.0
2016-Aug-26 10:33N 42°22' W 071°03'1 0.7
2016-Aug-26 09:33N 42°23' W 071°03'1 1.1
2016-Aug-26 08:33N 42°23' W 071°02'1 1.0
2016-Aug-26 07:34N 42°23' W 071°03'0 0.2
2016-Aug-26 06:32N 42°23' W 071°03'0 0.2
2016-Aug-26 04:33N 42°23' W 071°03'0 0.3
2016-Aug-26 03:33N 42°23' W 071°03'1 1.0
2016-Aug-26 02:33N 42°23' W 071°04'0 0.0
2016-Aug-26 01:33N 42°23' W 071°04'1 1.0
2016-Aug-26 00:33N 42°23' W 071°03'5 4.7
2016-Aug-25 23:34N 42°20' W 070°57'5 4.6
2016-Aug-25 22:33N 42°22' W 071°03'0 0.4
2016-Aug-25 21:33N 42°23' W 071°03'1 0.9
2016-Aug-25 20:33N 42°23' W 071°04'0 0.1
2016-Aug-25 19:33N 42°23' W 071°04'1 1.0
2016-Aug-25 18:33N 42°23' W 071°03'0 0.0
2016-Aug-25 17:29N 42°23' W 071°03'0 0.0
2016-Aug-25 16:33N 42°23' W 071°03'0 0.0
2016-Aug-25 15:33N 42°23' W 071°03'0 0.0
2016-Aug-25 14:33N 42°23' W 071°03'0 0.0
2016-Aug-25 13:33N 42°23' W 071°03'0 0.0
2016-Aug-25 12:33N 42°23' W 071°03'0 0.0
2016-Aug-25 11:32N 42°23' W 071°03'0 0.0
2016-Aug-25 10:33N 42°23' W 071°03'0 0.0
2016-Aug-25 09:33N 42°23' W 071°03'0 0.0
2016-Aug-25 08:33N 42°23' W 071°03'0 0.0
2016-Aug-25 07:33N 42°23' W 071°03'1 0.7
2016-Aug-25 06:33N 42°23' W 071°02'1 0.3
2016-Aug-25 04:33N 42°23' W 071°03'0 0.0
2016-Aug-25 03:33N 42°23' W 071°03'0 0.0
2016-Aug-25 02:34N 42°23' W 071°03'0 0.0
2016-Aug-25 01:33N 42°23' W 071°03'0 0.0
2016-Aug-25 00:33N 42°23' W 071°03'0 0.3
2016-Aug-24 23:33N 42°23' W 071°03'0 0.4
2016-Aug-24 22:33N 42°23' W 071°03'0 0.2
2016-Aug-24 21:33N 42°23' W 071°03'0 0.0
2016-Aug-24 20:33N 42°23' W 071°03'0 0.0
2016-Aug-24 19:33N 42°23' W 071°03'2 2.3
2016-Aug-24 18:33N 42°21' W 071°01'2 2.3
2016-Aug-24 17:33N 42°23' W 071°03'1 1.1
2016-Aug-24 16:33N 42°23' W 071°01'1 0.7
2016-Aug-24 15:33N 42°23' W 071°02'0 0.4
2016-Aug-24 14:33N 42°23' W 071°03'0 0.0
2016-Aug-24 13:33N 42°23' W 071°03'1 1.4
2016-Aug-24 12:33N 42°24' W 071°01'2 2.3
2016-Aug-24 11:34N 42°22' W 071°02'0 0.2
2016-Aug-24 10:33N 42°21' W 071°02'2 1.7
2016-Aug-24 09:33N 42°23' W 071°03'0 0.5
2016-Aug-24 08:33N 42°23' W 071°03'0 0.2
2016-Aug-24 07:33N 42°23' W 071°03'0 0.0
2016-Aug-24 06:33N 42°23' W 071°03'0 0.0
2016-Aug-24 04:33N 42°23' W 071°03'0 0.0
2016-Aug-24 03:33N 42°23' W 071°03'0 0.0
2016-Aug-24 02:33N 42°23' W 071°03'1 0.7
2016-Aug-24 01:34N 42°23' W 071°03'0 0.2
2016-Aug-24 00:33N 42°23' W 071°03'0 0.0
2016-Aug-23 23:33N 42°23' W 071°03'0 0.0
2016-Aug-23 22:32N 42°23' W 071°03'1 0.5
2016-Aug-23 21:33N 42°23' W 071°03'0 0.0
2016-Aug-23 20:33N 42°23' W 071°03'1 1.4
2016-Aug-23 19:33N 42°24' W 071°01'1 0.9
2016-Aug-23 18:34N 42°23' W 071°02'0 0.5
2016-Aug-23 17:33N 42°23' W 071°03'2 1.5
2016-Aug-23 16:32N 42°24' W 071°01'3 2.6
2016-Aug-23 15:33N 42°21' W 071°02'1 1.3
2016-Aug-23 14:33N 42°23' W 071°03'0 0.0
2016-Aug-23 13:33N 42°23' W 071°03'0 0.0
2016-Aug-23 12:33N 42°23' W 071°03'0 0.0
2016-Aug-23 11:33N 42°23' W 071°03'0 0.0
2016-Aug-23 10:33N 42°23' W 071°03'0 0.2
2016-Aug-23 09:33N 42°23' W 071°03'0 0.2
2016-Aug-23 08:33N 42°23' W 071°03'0 0.0
2016-Aug-23 07:33N 42°23' W 071°03'0 0.0
2016-Aug-23 06:33N 42°23' W 071°03'0 0.0
2016-Aug-23 05:33N 42°23' W 071°03'2 1.7
2016-Aug-23 04:33N 42°24' W 071°01'0 0.0
2016-Aug-23 03:33N 42°24' W 071°01'0 0.0
2016-Aug-23 02:33N 42°24' W 071°01'1 0.6
2016-Aug-23 01:33N 42°23' W 071°01'1 1.1
2016-Aug-23 00:33N 42°23' W 071°03'0 0.0
2016-Aug-22 23:33N 42°23' W 071°03'0 0.0
2016-Aug-22 22:33N 42°23' W 071°03'3 2.7
2016-Aug-22 21:33N 42°21' W 071°01'2 2.2
2016-Aug-22 20:33N 42°22' W 071°03'2 1.7
2016-Aug-22 19:33N 42°23' W 071°01'1 0.8
2016-Aug-22 18:33N 42°23' W 071°02'1 0.7
2016-Aug-22 17:34N 42°23' W 071°03'2 1.9
2016-Aug-22 16:33N 42°24' W 071°01'2 1.6
2016-Aug-22 15:33N 42°23' W 071°03'0 0.0
2016-Aug-22 14:24N 42°23' W 071°03'0 0.0
2016-Aug-22 13:24N 42°23' W 071°03'1 1.0
2016-Aug-22 12:33N 42°23' W 071°04'1 0.8
2016-Aug-22 11:32N 42°23' W 071°03'1 0.6
2016-Aug-22 10:33N 42°23' W 071°03'2 1.5
2016-Aug-22 09:34N 42°22' W 071°03'1 1.4
2016-Aug-22 08:33N 42°21' W 071°01'0 0.0
2016-Aug-22 07:33N 42°21' W 071°01'0 0.0
2016-Aug-22 06:33N 42°21' W 071°01'0 0.0
2016-Aug-22 05:33N 42°21' W 071°01'0 0.1
2016-Aug-22 04:34N 42°21' W 071°01'0 0.1
2016-Aug-22 03:33N 42°21' W 071°01'  
Track history (hours):
 
Tides and Currents Weather Stations Pressure Air Temp Water Temp Dewpoint Dewpoint Depression Visibility Wind Speed Wind Dir Waves Ship Positions

Justice

Owner: Boston Towing & Transportation, Boston, MA. More information available from US FCC via Universal Licensing System and Coast Guard Vessel Documentation Center.

Last reported at 2016-Sep-01 03:33 UTC. Time now 2016-Sep-01 03:43 UTC.
Position N 42°23' W 071°03'.

Length 30 m; draft 5.8 m.

Type: Tug. MMSI: 367513010.

Date/timePositionNaut miles runAvg speedWind from/ knotsBaromVisibWave heightAir tempDewpointWater temp
2016-Sep-01 03:33N 42°23' W 071°03'0 0.0
2016-Sep-01 02:32N 42°23' W 071°03'0 0.0
2016-Sep-01 01:33N 42°23' W 071°03'0 0.0
2016-Sep-01 00:31N 42°23' W 071°03'0 0.0
2016-Aug-31 23:33N 42°23' W 071°03'1 0.8
2016-Aug-31 22:33N 42°23' W 071°02'2 1.9
2016-Aug-31 21:33N 42°21' W 071°02'2 2.0
2016-Aug-31 20:34N 42°23' W 071°02'0 0.4
2016-Aug-31 19:33N 42°23' W 071°03'0 0.1
2016-Aug-31 18:33N 42°23' W 071°03'6 5.8
2016-Aug-31 17:33N 42°20' W 070°56'6 5.7
2016-Aug-31 16:33N 42°14' W 070°58'1 0.6
2016-Aug-31 15:32N 42°15' W 070°58'5 4.8
2016-Aug-31 14:33N 42°19' W 070°55'3 3.5
2016-Aug-31 13:34N 42°16' W 070°56'2 1.8
2016-Aug-31 12:33N 42°15' W 070°58'5 5.2
2016-Aug-31 11:33N 42°19' W 070°55'7 6.7
2016-Aug-31 10:33N 42°23' W 071°03'0 0.0
2016-Aug-31 09:33N 42°23' W 071°03'0 0.0
2016-Aug-31 08:33N 42°23' W 071°03'0 0.0
2016-Aug-31 07:33N 42°23' W 071°03'0 0.0
2016-Aug-31 06:33N 42°23' W 071°03'0 0.0
2016-Aug-31 05:33N 42°23' W 071°03'0 0.0
2016-Aug-31 04:33N 42°23' W 071°03'0 0.0
2016-Aug-31 03:33N 42°23' W 071°03'1 0.9
2016-Aug-31 02:34N 42°23' W 071°01'1 0.5
2016-Aug-31 01:33N 42°24' W 071°01'1 1.4
2016-Aug-31 00:33N 42°23' W 071°03'0 0.1
2016-Aug-30 23:33N 42°23' W 071°03'0 0.0
2016-Aug-30 22:33N 42°23' W 071°03'0 0.0
2016-Aug-30 21:33N 42°23' W 071°03'0 0.0
2016-Aug-30 20:33N 42°23' W 071°03'0 0.0
2016-Aug-30 19:33N 42°23' W 071°03'0 0.0
2016-Aug-30 18:33N 42°23' W 071°03'0 0.0
2016-Aug-30 17:33N 42°23' W 071°03'0 0.0
2016-Aug-30 16:33N 42°23' W 071°03'0 0.0
2016-Aug-30 15:33N 42°23' W 071°03'1 0.8
2016-Aug-30 14:33N 42°23' W 071°03'2 2.4
2016-Aug-30 13:34N 42°21' W 071°02'2 2.5
2016-Aug-30 12:33N 42°23' W 071°04'1 1.4
2016-Aug-30 11:34N 42°23' W 071°02'1 0.7
2016-Aug-30 10:33N 42°23' W 071°03'3 2.5
2016-Aug-30 09:33N 42°21' W 071°01'0 0.4
2016-Aug-30 08:33N 42°21' W 071°01'0 0.0
2016-Aug-30 07:34N 42°21' W 071°01'0 0.0
2016-Aug-30 06:33N 42°21' W 071°01'0 0.0
2016-Aug-30 05:33N 42°21' W 071°01'0 0.0
2016-Aug-30 04:33N 42°21' W 071°01'0 0.2
2016-Aug-30 03:33N 42°21' W 071°01'2 2.5
2016-Aug-30 02:33N 42°23' W 071°03'0 0.0
2016-Aug-30 01:33N 42°23' W 071°03'0 0.0
2016-Aug-30 00:33N 42°23' W 071°03'0 0.0
2016-Aug-29 23:33N 42°23' W 071°03'0 0.0
2016-Aug-29 22:33N 42°23' W 071°03'0 0.0
2016-Aug-29 21:33N 42°23' W 071°03'0 0.0
2016-Aug-29 20:33N 42°23' W 071°03'1 1.2
2016-Aug-29 19:33N 42°23' W 071°01'1 1.1
2016-Aug-29 18:33N 42°23' W 071°03'0 0.0
2016-Aug-29 17:33N 42°23' W 071°03'0 0.2
2016-Aug-29 16:33N 42°23' W 071°03'4 4.2
2016-Aug-29 15:33N 42°20' W 070°59'6 5.8
2016-Aug-29 14:33N 42°14' W 070°58'1 0.7
2016-Aug-29 13:33N 42°15' W 070°58'4 4.5
2016-Aug-29 12:33N 42°19' W 070°55'6 5.8
2016-Aug-29 11:33N 42°21' W 071°02'1 1.5
2016-Aug-29 10:33N 42°23' W 071°03'0 0.2
2016-Aug-29 09:34N 42°23' W 071°03'1 1.0
2016-Aug-29 08:33N 42°22' W 071°03'2 2.3
2016-Aug-29 07:33N 42°24' W 071°01'1 1.2
2016-Aug-29 06:34N 42°23' W 071°02'0 0.5
2016-Aug-29 05:33N 42°23' W 071°03'0 0.0
2016-Aug-29 04:33N 42°23' W 071°03'0 0.0
2016-Aug-29 03:33N 42°23' W 071°03'0 0.0
2016-Aug-29 02:27N 42°23' W 071°03'2 2.8
2016-Aug-29 01:34N 42°21' W 071°01'1 0.7
2016-Aug-29 00:33N 42°21' W 071°02'2 1.7
2016-Aug-28 23:33N 42°23' W 071°03'0 0.0
2016-Aug-28 22:33N 42°23' W 071°03'0 0.0
2016-Aug-28 21:33N 42°23' W 071°03'0 0.0
2016-Aug-28 20:33N 42°23' W 071°03'0 0.0
2016-Aug-28 19:33N 42°23' W 071°03'0 0.0
2016-Aug-28 18:33N 42°23' W 071°03'0 0.0
2016-Aug-28 17:33N 42°23' W 071°03'0 0.0
2016-Aug-28 16:33N 42°23' W 071°03'0 0.0
2016-Aug-28 15:33N 42°23' W 071°03'0 0.0
2016-Aug-28 14:33N 42°23' W 071°03'0 0.0
2016-Aug-28 13:33N 42°23' W 071°03'0 0.0
2016-Aug-28 12:33N 42°23' W 071°03'1 0.7
2016-Aug-28 11:33N 42°23' W 071°02'1 0.7
2016-Aug-28 10:33N 42°23' W 071°03'0 0.0
2016-Aug-28 09:33N 42°23' W 071°03'0 0.0
2016-Aug-28 08:33N 42°23' W 071°03'0 0.0
2016-Aug-28 07:33N 42°23' W 071°03'0 0.0
2016-Aug-28 06:33N 42°23' W 071°03'0 0.0
2016-Aug-28 05:33N 42°23' W 071°03'0 0.0
2016-Aug-28 04:33N 42°23' W 071°03'0 0.0
2016-Aug-28 03:33N 42°23' W 071°03'2 2.4
2016-Aug-28 02:34N 42°21' W 071°01'2 2.0
2016-Aug-28 01:33N 42°20' W 070°59'2 1.5
2016-Aug-28 00:33N 42°20' W 071°00'2 1.7
2016-Aug-27 23:33N 42°21' W 071°02'1 1.3
2016-Aug-27 22:33N 42°23' W 071°03'0 0.0
2016-Aug-27 21:33N 42°23' W 071°03'0 0.0
2016-Aug-27 20:34N 42°23' W 071°03'0 0.0
2016-Aug-27 19:33N 42°23' W 071°03'0 0.0
2016-Aug-27 18:33N 42°23' W 071°03'0 0.0
2016-Aug-27 17:33N 42°23' W 071°03'0 0.0
2016-Aug-27 16:33N 42°23' W 071°03'0 0.0
2016-Aug-27 15:33N 42°23' W 071°03'0 0.0
2016-Aug-27 14:33N 42°23' W 071°03'2 1.7
2016-Aug-27 13:33N 42°24' W 071°01'3 2.6
2016-Aug-27 12:33N 42°22' W 071°02'1 0.6
2016-Aug-27 11:33N 42°21' W 071°02'3 2.6
2016-Aug-27 10:33N 42°23' W 071°04'1 1.3
2016-Aug-27 09:34N 42°22' W 071°03'1 0.7
2016-Aug-27 08:33N 42°23' W 071°03'0 0.0
2016-Aug-27 07:33N 42°23' W 071°03'0 0.0
2016-Aug-27 06:33N 42°23' W 071°03'0 0.2
2016-Aug-27 04:33N 42°23' W 071°02'0 0.2
2016-Aug-27 03:33N 42°23' W 071°03'0 0.1
2016-Aug-27 02:33N 42°23' W 071°03'0 0.0
2016-Aug-27 01:33N 42°23' W 071°03'0 0.0
2016-Aug-27 00:33N 42°23' W 071°03'0 0.0
2016-Aug-26 23:33N 42°23' W 071°03'1 0.7
2016-Aug-26 22:34N 42°23' W 071°03'1 0.7
2016-Aug-26 21:33N 42°23' W 071°03'0 0.0
2016-Aug-26 20:33N 42°23' W 071°03'0 0.0
2016-Aug-26 19:33N 42°23' W 071°03'1 0.5
2016-Aug-26 18:31N 42°23' W 071°03'1 1.1
2016-Aug-26 17:33N 42°22' W 071°03'2 1.7
2016-Aug-26 16:33N 42°21' W 071°02'0 0.1
2016-Aug-26 15:33N 42°21' W 071°02'0 0.0
2016-Aug-26 14:33N 42°21' W 071°02'0 0.0
2016-Aug-26 13:25N 42°21' W 071°02'0 0.0
2016-Aug-26 12:31N 42°21' W 071°02'0 0.0
2016-Aug-26 11:33N 42°21' W 071°02'2 2.0
2016-Aug-26 10:33N 42°22' W 071°03'1 0.7
2016-Aug-26 09:33N 42°23' W 071°03'1 1.1
2016-Aug-26 08:33N 42°23' W 071°02'1 1.0
2016-Aug-26 07:34N 42°23' W 071°03'0 0.2
2016-Aug-26 06:32N 42°23' W 071°03'0 0.2
2016-Aug-26 04:33N 42°23' W 071°03'0 0.3
2016-Aug-26 03:33N 42°23' W 071°03'1 1.0
2016-Aug-26 02:33N 42°23' W 071°04'0 0.0
2016-Aug-26 01:33N 42°23' W 071°04'1 1.0
2016-Aug-26 00:33N 42°23' W 071°03'5 4.7
2016-Aug-25 23:34N 42°20' W 070°57'5 4.6
2016-Aug-25 22:33N 42°22' W 071°03'0 0.4
2016-Aug-25 21:33N 42°23' W 071°03'1 0.9
2016-Aug-25 20:33N 42°23' W 071°04'0 0.1
2016-Aug-25 19:33N 42°23' W 071°04'1 1.0
2016-Aug-25 18:33N 42°23' W 071°03'0 0.0
2016-Aug-25 17:29N 42°23' W 071°03'0 0.0
2016-Aug-25 16:33N 42°23' W 071°03'0 0.0
2016-Aug-25 15:33N 42°23' W 071°03'0 0.0
2016-Aug-25 14:33N 42°23' W 071°03'0 0.0
2016-Aug-25 13:33N 42°23' W 071°03'0 0.0
2016-Aug-25 12:33N 42°23' W 071°03'0 0.0
2016-Aug-25 11:32N 42°23' W 071°03'0 0.0
2016-Aug-25 10:33N 42°23' W 071°03'0 0.0
2016-Aug-25 09:33N 42°23' W 071°03'0 0.0
2016-Aug-25 08:33N 42°23' W 071°03'0 0.0
2016-Aug-25 07:33N 42°23' W 071°03'1 0.7
2016-Aug-25 06:33N 42°23' W 071°02'1 0.3
2016-Aug-25 04:33N 42°23' W 071°03'0 0.0
2016-Aug-25 03:33N 42°23' W 071°03'0 0.0
2016-Aug-25 02:34N 42°23' W 071°03'0 0.0
2016-Aug-25 01:33N 42°23' W 071°03'0 0.0
2016-Aug-25 00:33N 42°23' W 071°03'0 0.3
2016-Aug-24 23:33N 42°23' W 071°03'0 0.4
2016-Aug-24 22:33N 42°23' W 071°03'0 0.2
2016-Aug-24 21:33N 42°23' W 071°03'0 0.0
2016-Aug-24 20:33N 42°23' W 071°03'0 0.0
2016-Aug-24 19:33N 42°23' W 071°03'2 2.3
2016-Aug-24 18:33N 42°21' W 071°01'2 2.3
2016-Aug-24 17:33N 42°23' W 071°03'1 1.1
2016-Aug-24 16:33N 42°23' W 071°01'1 0.7
2016-Aug-24 15:33N 42°23' W 071°02'0 0.4
2016-Aug-24 14:33N 42°23' W 071°03'0 0.0
2016-Aug-24 13:33N 42°23' W 071°03'1 1.4
2016-Aug-24 12:33N 42°24' W 071°01'2 2.3
2016-Aug-24 11:34N 42°22' W 071°02'0 0.2
2016-Aug-24 10:33N 42°21' W 071°02'2 1.7
2016-Aug-24 09:33N 42°23' W 071°03'0 0.5
2016-Aug-24 08:33N 42°23' W 071°03'0 0.2
2016-Aug-24 07:33N 42°23' W 071°03'0 0.0
2016-Aug-24 06:33N 42°23' W 071°03'0 0.0
2016-Aug-24 04:33N 42°23' W 071°03'0 0.0
2016-Aug-24 03:33N 42°23' W 071°03'0 0.0
2016-Aug-24 02:33N 42°23' W 071°03'1 0.7
2016-Aug-24 01:34N 42°23' W 071°03'0 0.2
2016-Aug-24 00:33N 42°23' W 071°03'0 0.0
2016-Aug-23 23:33N 42°23' W 071°03'0 0.0
2016-Aug-23 22:32N 42°23' W 071°03'1 0.5
2016-Aug-23 21:33N 42°23' W 071°03'0 0.0
2016-Aug-23 20:33N 42°23' W 071°03'1 1.4
2016-Aug-23 19:33N 42°24' W 071°01'1 0.9
2016-Aug-23 18:34N 42°23' W 071°02'0 0.5
2016-Aug-23 17:33N 42°23' W 071°03'2 1.5
2016-Aug-23 16:32N 42°24' W 071°01'3 2.6
2016-Aug-23 15:33N 42°21' W 071°02'1 1.3
2016-Aug-23 14:33N 42°23' W 071°03'0 0.0
2016-Aug-23 13:33N 42°23' W 071°03'0 0.0
2016-Aug-23 12:33N 42°23' W 071°03'0 0.0
2016-Aug-23 11:33N 42°23' W 071°03'0 0.0
2016-Aug-23 10:33N 42°23' W 071°03'0 0.2
2016-Aug-23 09:33N 42°23' W 071°03'0 0.2
2016-Aug-23 08:33N 42°23' W 071°03'0 0.0
2016-Aug-23 07:33N 42°23' W 071°03'0 0.0
2016-Aug-23 06:33N 42°23' W 071°03'0 0.0
2016-Aug-23 05:33N 42°23' W 071°03'2 1.7
2016-Aug-23 04:33N 42°24' W 071°01'0 0.0
2016-Aug-23 03:33N 42°24' W 071°01'0 0.0
2016-Aug-23 02:33N 42°24' W 071°01'1 0.6
2016-Aug-23 01:33N 42°23' W 071°01'1 1.1
2016-Aug-23 00:33N 42°23' W 071°03'0 0.0
2016-Aug-22 23:33N 42°23' W 071°03'0 0.0
2016-Aug-22 22:33N 42°23' W 071°03'3 2.7
2016-Aug-22 21:33N 42°21' W 071°01'2 2.2
2016-Aug-22 20:33N 42°22' W 071°03'2 1.7
2016-Aug-22 19:33N 42°23' W 071°01'1 0.8
2016-Aug-22 18:33N 42°23' W 071°02'1 0.7
2016-Aug-22 17:34N 42°23' W 071°03'2 1.9
2016-Aug-22 16:33N 42°24' W 071°01'2 1.6
2016-Aug-22 15:33N 42°23' W 071°03'0 0.0
2016-Aug-22 14:24N 42°23' W 071°03'0 0.0
2016-Aug-22 13:24N 42°23' W 071°03'1 1.0
2016-Aug-22 12:33N 42°23' W 071°04'1 0.8
2016-Aug-22 11:32N 42°23' W 071°03'1 0.6
2016-Aug-22 10:33N 42°23' W 071°03'2 1.5
2016-Aug-22 09:34N 42°22' W 071°03'1 1.4
2016-Aug-22 08:33N 42°21' W 071°01'0 0.0
2016-Aug-22 07:33N 42°21' W 071°01'0 0.0
2016-Aug-22 06:33N 42°21' W 071°01'0 0.0
2016-Aug-22 05:33N 42°21' W 071°01'0 0.1
2016-Aug-22 04:34N 42°21' W 071°01'0 0.1
2016-Aug-22 03:33N 42°21' W 071°01'  

Dump ship's entire track history